WGN9611 EBOS-RKSI
Flight info
| Callsign | WGN9611 |
|---|---|
| Flight time | N/A |
| Altitude | 31000 |
| Route | FERDI UL607 REMBA M624 DIK M150 PITES DCT NOMBO Y161 RIDAR Z98 WLD T702 BADIT DCT GOTAR DCT MOPUG DCT LUGEB DCT UDROS UM859 RERVA/N0489F330 UM859 KARDE UN644 ROLIN DCT TETRO DCT BARAD M747 SUBUT T916 BALUN/K0902F330 T916 AKALI/K0896F350 T916 PIGAL M610 RULAD/K0898S1070 A343 POSOT B215 FKG W188 BATUS/K0898S1130 W188 LIKMI W270 DKO W69 HUR B339 LADIX W34 VAPGU W100 ORAVA W201 UNSEK A326 DONVO G597 AGAVO/N0488F390 Y644 REBIT REBIT2H |
| Aircraft | MD11/H-SDE1E2E3FGHIJ2J3J4J5M1RWXY/LB1D1 |
Departure
| Time | 2026-05-04 08:35 |
|---|---|
| Airport | Ostend-Bruges International Airport (EBOS) |
Arrival
| Time | N/A |
|---|---|
| Airport | Incheon International Airport (RKSI) |
| Time | Latitude | Longitude | Altitude | Speed | Heading |
|---|---|---|---|---|---|
| 2026-05-04 07:56 | 51.20400 | 2.87456 | 30 ft | 0 kts | 344° |
| 2026-05-04 08:19 | 51.20382 | 2.87464 | 29 ft | 4 kts | 345° |
| 2026-05-04 08:20 | 51.20356 | 2.87473 | 27 ft | 4 kts | 357° |
| 2026-05-04 08:20 | 51.20333 | 2.87471 | 27 ft | 3 kts | 16° |
| 2026-05-04 08:20 | 51.20315 | 2.87459 | 27 ft | 4 kts | 61° |
| 2026-05-04 08:20 | 51.20310 | 2.87425 | 29 ft | 4 kts | 88° |
| 2026-05-04 08:21 | 51.20308 | 2.87395 | 30 ft | 0 kts | 76° |
| 2026-05-04 08:24 | 51.20311 | 2.87413 | 30 ft | 4 kts | 76° |
| 2026-05-04 08:24 | 51.20321 | 2.87495 | 30 ft | 10 kts | 91° |
| 2026-05-04 08:24 | 51.20275 | 2.87566 | 30 ft | 10 kts | 161° |
| 2026-05-04 08:25 | 51.20210 | 2.87590 | 30 ft | 8 kts | 167° |
| 2026-05-04 08:25 | 51.20184 | 2.87649 | 30 ft | 6 kts | 87° |
| 2026-05-04 08:25 | 51.20194 | 2.87731 | 30 ft | 9 kts | 77° |
| 2026-05-04 08:25 | 51.20209 | 2.87835 | 30 ft | 11 kts | 77° |
| 2026-05-04 08:26 | 51.20227 | 2.87962 | 28 ft | 13 kts | 77° |
| 2026-05-04 08:27 | 51.20213 | 2.88293 | 29 ft | 4 kts | 138° |
| 2026-05-04 08:28 | 51.20183 | 2.88314 | 27 ft | 6 kts | 166° |
| 2026-05-04 08:28 | 51.20134 | 2.88342 | 28 ft | 8 kts | 139° |
| 2026-05-04 08:28 | 51.20128 | 2.88414 | 29 ft | 6 kts | 77° |
| 2026-05-04 08:28 | 51.20140 | 2.88494 | 30 ft | 9 kts | 77° |
| 2026-05-04 08:29 | 51.20156 | 2.88606 | 31 ft | 12 kts | 76° |
| 2026-05-04 08:29 | 51.20179 | 2.88753 | 32 ft | 15 kts | 76° |
| 2026-05-04 08:29 | 51.20208 | 2.88940 | 31 ft | 19 kts | 77° |
| 2026-05-04 08:31 | 51.20430 | 2.89724 | 29 ft | 0 kts | 98° |
| 2026-05-04 08:33 | 51.20087 | 2.88135 | 27 ft | 139 kts | 256° |
| 2026-05-04 08:33 | 51.19815 | 2.86354 | 46 ft | 185 kts | 256° |
| 2026-05-04 08:35 | 51.16969 | 2.72713 | 2774 ft | 249 kts | 214° |
| 2026-05-04 08:35 | 51.15466 | 2.71140 | 2887 ft | 267 kts | 213° |
| 2026-05-04 08:35 | 51.13823 | 2.69596 | 3035 ft | 283 kts | 204° |
| 2026-05-04 08:35 | 51.11892 | 2.68865 | 3421 ft | 289 kts | 179° |
| 2026-05-04 08:37 | 51.05776 | 2.84913 | 7303 ft | 321 kts | 105° |
| 2026-05-04 08:37 | 51.05195 | 2.88359 | 7957 ft | 325 kts | 105° |
| 2026-05-04 08:37 | 51.04591 | 2.91839 | 8627 ft | 328 kts | 106° |
| 2026-05-04 08:38 | 51.03971 | 2.95345 | 9302 ft | 332 kts | 107° |
| 2026-05-04 08:38 | 51.03335 | 2.98894 | 9956 ft | 336 kts | 107° |
| 2026-05-04 08:38 | 51.02675 | 3.02538 | 10219 ft | 353 kts | 107° |
| 2026-05-04 08:40 | 50.97630 | 3.30008 | 13945 ft | 381 kts | 108° |
| 2026-05-04 08:40 | 50.96879 | 3.34052 | 14387 ft | 384 kts | 108° |
| 2026-05-04 08:40 | 50.96120 | 3.38129 | 14834 ft | 387 kts | 108° |
| 2026-05-04 08:41 | 50.95356 | 3.42235 | 15263 ft | 390 kts | 108° |
| 2026-05-04 08:41 | 50.94584 | 3.46368 | 15685 ft | 393 kts | 108° |
| 2026-05-04 08:41 | 50.93805 | 3.50536 | 16120 ft | 396 kts | 108° |
| 2026-05-04 08:41 | 50.93019 | 3.54728 | 16541 ft | 398 kts | 108° |
| 2026-05-04 08:42 | 50.92226 | 3.58951 | 16947 ft | 401 kts | 108° |
| 2026-05-04 08:42 | 50.91420 | 3.63203 | 17353 ft | 404 kts | 108° |
| 2026-05-04 08:42 | 50.90593 | 3.67465 | 17757 ft | 407 kts | 108° |
| 2026-05-04 08:42 | 50.89765 | 3.71702 | 18145 ft | 409 kts | 108° |
| 2026-05-04 08:43 | 50.88925 | 3.76005 | 18498 ft | 412 kts | 108° |
| 2026-05-04 08:43 | 50.88363 | 3.78897 | 18716 ft | 414 kts | 109° |
| 2026-05-04 08:43 | 50.87257 | 3.84598 | 19162 ft | 416 kts | 109° |
| 2026-05-04 08:43 | 50.86388 | 3.89080 | 19508 ft | 418 kts | 109° |
| 2026-05-04 08:44 | 50.85534 | 3.93485 | 19842 ft | 420 kts | 109° |
| 2026-05-04 08:44 | 50.84674 | 3.97912 | 20173 ft | 422 kts | 109° |
| 2026-05-04 08:46 | 50.78810 | 4.27822 | 22468 ft | 432 kts | 111° |
| 2026-05-04 08:46 | 50.77911 | 4.32365 | 22830 ft | 434 kts | 111° |
| 2026-05-04 08:46 | 50.77007 | 4.36923 | 23180 ft | 436 kts | 111° |
| 2026-05-04 08:46 | 50.76097 | 4.41499 | 23538 ft | 438 kts | 112° |
| 2026-05-04 08:47 | 50.75182 | 4.46090 | 23823 ft | 440 kts | 112° |
| 2026-05-04 08:47 | 50.74259 | 4.50713 | 24123 ft | 442 kts | 112° |
| 2026-05-04 08:47 | 50.73331 | 4.55348 | 24436 ft | 444 kts | 112° |
| 2026-05-04 08:47 | 50.72398 | 4.60000 | 24738 ft | 447 kts | 112° |
| 2026-05-04 08:48 | 50.71471 | 4.64655 | 25039 ft | 449 kts | 112° |
| 2026-05-04 08:48 | 50.70547 | 4.69353 | 25277 ft | 453 kts | 112° |
| 2026-05-04 08:48 | 50.69617 | 4.74117 | 25556 ft | 455 kts | 112° |
| 2026-05-04 08:48 | 50.68688 | 4.78905 | 25842 ft | 458 kts | 112° |
| 2026-05-04 08:49 | 50.67755 | 4.83698 | 26122 ft | 460 kts | 113° |
| 2026-05-04 08:50 | 50.56495 | 5.06585 | 27720 ft | 448 kts | 143° |
| 2026-05-04 08:50 | 50.54173 | 5.10035 | 27997 ft | 450 kts | 142° |
| 2026-05-04 08:51 | 50.51912 | 5.13452 | 28189 ft | 454 kts | 142° |
| 2026-05-04 08:51 | 50.49645 | 5.16919 | 28429 ft | 456 kts | 141° |
| 2026-05-04 08:51 | 50.47375 | 5.20415 | 28675 ft | 458 kts | 141° |
| 2026-05-04 08:51 | 50.45133 | 5.23876 | 28927 ft | 460 kts | 142° |
| 2026-05-04 08:52 | 50.42809 | 5.27464 | 29167 ft | 462 kts | 142° |
| 2026-05-04 08:52 | 50.40510 | 5.31006 | 29425 ft | 464 kts | 142° |
| 2026-05-04 08:52 | 50.38202 | 5.34554 | 29668 ft | 466 kts | 142° |
| 2026-05-04 08:52 | 50.35881 | 5.38117 | 29888 ft | 468 kts | 142° |
| 2026-05-04 08:53 | 50.33549 | 5.41691 | 30107 ft | 469 kts | 142° |